Decatur, Alabama
Current Conditions -  °F | °C
As of 6:53 PM on Saturday 25 Oct 2014 (Local Time) from KDCU Reporting Station
Clear Clear  
Wind Chill: 67°   Ceiling: Unl
Heat Index: 67°   Visibility: 10mi
Dew Point: 60°   Wind: 0mph
Humidity: 79%   Direction: NA
Pressure: 30.03"   Gusts: NA
Location:  34.61°N, 86.98°W
Report Text: KDCU 252353Z AUTO 00000KT 10SM CLR 19/16 A3003 RMK AO2 SLP168 T01940156 10256 20194 53001
Loading
Personal Weather Stations






























Interactive Weather Map
Tropical Storm Tracking
New forecast layout! Learn more

10-Day Weather Forecast

Advertisements
Track Severe Weather on mobile